Icarus — D5AX3 — position and weather

sailwx.info

Track history (hours):
 
Tides and Currents Weather Stations Pressure Air Temp Water Temp Dewpoint Dewpoint Depression Visibility Wind Speed Wind Dir Waves Ship Positions

Icarus

Last reported at 2014-Oct-18 10:31 UTC. Time now 2014-Oct-21 02:12 UTC.
Position N 35°10' E 026°57'.

Length 225 m; draft 14.3 m.

Type: Cargo ship. MMSI: 636015464.

Date/timePositionNaut miles runAvg speedWind from/ knotsBaromVisibWave heightAir tempDewpointWater temp
2014-Oct-18 10:31N 35°10' E 026°57'1212.6
2014-Oct-18 09:33N 35°18' E 026°46'5212.9
2014-Oct-18 05:31N 35°51' E 025°56'1213.1
2014-Oct-18 04:33N 35°60' E 025°45'1313.1
2014-Oct-18 03:33N 36°08' E 025°32'1313.3
2014-Oct-18 02:33N 36°16' E 025°19'1313.4
2014-Oct-18 01:33N 36°25' E 025°06'1312.9
2014-Oct-18 00:33N 36°33' E 024°54'1212.3
2014-Oct-17 23:33N 36°43' E 024°45'1212.1
2014-Oct-17 22:33N 36°53' E 024°37'1212.4
2014-Oct-17 21:33N 37°02' E 024°26'1311.3
2014-Oct-17 20:23N 37°11' E 024°14'3612.9
2014-Oct-17 17:33N 37°38' E 023°43'1312.8
2014-Oct-17 16:33N 37°50' E 023°36'5 4.8
2014-Oct-17 15:31N 37°53' E 023°31'0 0.1
2014-Oct-17 14:31N 37°53' E 023°31'0 0.0
2014-Oct-17 13:31N 37°53' E 023°31'0 0.0
2014-Oct-17 12:31N 37°53' E 023°31'0 0.0
2014-Oct-17 11:31N 37°53' E 023°31'0 0.0
2014-Oct-17 10:31N 37°53' E 023°31'0 0.0
2014-Oct-17 09:31N 37°53' E 023°31'0 0.0
2014-Oct-17 08:31N 37°53' E 023°31'0 0.0
2014-Oct-17 07:31N 37°53' E 023°31'0 0.0
2014-Oct-17 06:31N 37°53' E 023°31'0 0.0
2014-Oct-17 05:31N 37°52' E 023°31'0 0.1
2014-Oct-17 04:31N 37°53' E 023°31'0 0.1
2014-Oct-17 03:31N 37°53' E 023°31'1 0.7
2014-Oct-17 02:33N 37°52' E 023°31'3 2.5
2014-Oct-17 01:33N 37°51' E 023°33'6 6.0
2014-Oct-17 00:34N 37°48' E 023°40'1211.7
2014-Oct-16 23:33N 37°39' E 023°49'1212.3
2014-Oct-16 22:33N 37°36' E 024°04'1611.9
2014-Oct-16 21:11N 37°45' E 024°20'812.1
2014-Oct-16 20:33N 37°51' E 024°27'4012.4
2014-Oct-16 17:17N 38°25' E 024°55'2212.9
2014-Oct-16 15:32N 38°45' E 025°08'2812.6
2014-Oct-16 13:21N 39°09' E 025°24'1312.3
2014-Oct-16 12:17N 39°21' E 025°31'  
2014-Oct-13 20:23N 46°17' E 030°47'5 0.4
2014-Oct-13 07:33N 46°19' E 030°40'0 0.0
2014-Oct-12 17:23N 46°19' E 030°40'0 0.0
2014-Oct-12 15:32N 46°19' E 030°40'0 0.0
2014-Oct-12 14:31N 46°19' E 030°40'0 0.0
2014-Oct-12 06:33N 46°19' E 030°40'0 0.0
2014-Oct-11 15:33N 46°19' E 030°40'0 0.0
2014-Oct-11 14:34N 46°19' E 030°40'0 0.0
2014-Oct-11 13:34N 46°19' E 030°40'0 0.0
2014-Oct-11 12:34N 46°19' E 030°40'0 0.0
2014-Oct-11 11:33N 46°19' E 030°40'0 0.0
2014-Oct-11 10:33N 46°19' E 030°40'0 0.0
2014-Oct-11 09:34N 46°19' E 030°40'0 0.0
2014-Oct-11 08:32N 46°19' E 030°40'0 0.0
2014-Oct-11 07:33N 46°19' E 030°40'0 0.0
2014-Oct-11 06:34N 46°19' E 030°40'0 0.0
2014-Oct-11 05:32N 46°19' E 030°40'0 0.0
2014-Oct-11 04:34N 46°19' E 030°40'0 0.0
2014-Oct-11 03:29N 46°19' E 030°40'0 0.0
2014-Oct-11 02:25N 46°19' E 030°40'0 0.0
2014-Oct-11 01:34N 46°19' E 030°40'0 0.0
2014-Oct-11 00:33N 46°19' E 030°40'0 0.0
2014-Oct-10 23:33N 46°19' E 030°40'0 0.0
2014-Oct-10 21:07N 46°19' E 030°40'0 0.0
2014-Oct-10 20:29N 46°19' E 030°40'0 0.0
2014-Oct-10 19:27N 46°19' E 030°40'0 0.0
2014-Oct-10 18:28N 46°19' E 030°40'  
Track history (hours):
 
Tides and Currents Weather Stations Pressure Air Temp Water Temp Dewpoint Dewpoint Depression Visibility Wind Speed Wind Dir Waves Ship Positions

Icarus

Last reported at 2014-Oct-18 10:31 UTC. Time now 2014-Oct-21 02:12 UTC.
Position N 35°10' E 026°57'.

Length 225 m; draft 14.3 m.

Type: Cargo ship. MMSI: 636015464.

Date/timePositionNaut miles runAvg speedWind from/ knotsBaromVisibWave heightAir tempDewpointWater temp
2014-Oct-18 10:31N 35°10' E 026°57'1212.6
2014-Oct-18 09:33N 35°18' E 026°46'5212.9
2014-Oct-18 05:31N 35°51' E 025°56'1213.1
2014-Oct-18 04:33N 35°60' E 025°45'1313.1
2014-Oct-18 03:33N 36°08' E 025°32'1313.3
2014-Oct-18 02:33N 36°16' E 025°19'1313.4
2014-Oct-18 01:33N 36°25' E 025°06'1312.9
2014-Oct-18 00:33N 36°33' E 024°54'1212.3
2014-Oct-17 23:33N 36°43' E 024°45'1212.1
2014-Oct-17 22:33N 36°53' E 024°37'1212.4
2014-Oct-17 21:33N 37°02' E 024°26'1311.3
2014-Oct-17 20:23N 37°11' E 024°14'3612.9
2014-Oct-17 17:33N 37°38' E 023°43'1312.8
2014-Oct-17 16:33N 37°50' E 023°36'5 4.8
2014-Oct-17 15:31N 37°53' E 023°31'0 0.1
2014-Oct-17 14:31N 37°53' E 023°31'0 0.0
2014-Oct-17 13:31N 37°53' E 023°31'0 0.0
2014-Oct-17 12:31N 37°53' E 023°31'0 0.0
2014-Oct-17 11:31N 37°53' E 023°31'0 0.0
2014-Oct-17 10:31N 37°53' E 023°31'0 0.0
2014-Oct-17 09:31N 37°53' E 023°31'0 0.0
2014-Oct-17 08:31N 37°53' E 023°31'0 0.0
2014-Oct-17 07:31N 37°53' E 023°31'0 0.0
2014-Oct-17 06:31N 37°53' E 023°31'0 0.0
2014-Oct-17 05:31N 37°52' E 023°31'0 0.1
2014-Oct-17 04:31N 37°53' E 023°31'0 0.1
2014-Oct-17 03:31N 37°53' E 023°31'1 0.7
2014-Oct-17 02:33N 37°52' E 023°31'3 2.5
2014-Oct-17 01:33N 37°51' E 023°33'6 6.0
2014-Oct-17 00:34N 37°48' E 023°40'1211.7
2014-Oct-16 23:33N 37°39' E 023°49'1212.3
2014-Oct-16 22:33N 37°36' E 024°04'1611.9
2014-Oct-16 21:11N 37°45' E 024°20'812.1
2014-Oct-16 20:33N 37°51' E 024°27'4012.4
2014-Oct-16 17:17N 38°25' E 024°55'2212.9
2014-Oct-16 15:32N 38°45' E 025°08'2812.6
2014-Oct-16 13:21N 39°09' E 025°24'1312.3
2014-Oct-16 12:17N 39°21' E 025°31'  
2014-Oct-13 20:23N 46°17' E 030°47'5 0.4
2014-Oct-13 07:33N 46°19' E 030°40'0 0.0
2014-Oct-12 17:23N 46°19' E 030°40'0 0.0
2014-Oct-12 15:32N 46°19' E 030°40'0 0.0
2014-Oct-12 14:31N 46°19' E 030°40'0 0.0
2014-Oct-12 06:33N 46°19' E 030°40'0 0.0
2014-Oct-11 15:33N 46°19' E 030°40'0 0.0
2014-Oct-11 14:34N 46°19' E 030°40'0 0.0
2014-Oct-11 13:34N 46°19' E 030°40'0 0.0
2014-Oct-11 12:34N 46°19' E 030°40'0 0.0
2014-Oct-11 11:33N 46°19' E 030°40'0 0.0
2014-Oct-11 10:33N 46°19' E 030°40'0 0.0
2014-Oct-11 09:34N 46°19' E 030°40'0 0.0
2014-Oct-11 08:32N 46°19' E 030°40'0 0.0
2014-Oct-11 07:33N 46°19' E 030°40'0 0.0
2014-Oct-11 06:34N 46°19' E 030°40'0 0.0
2014-Oct-11 05:32N 46°19' E 030°40'0 0.0
2014-Oct-11 04:34N 46°19' E 030°40'0 0.0
2014-Oct-11 03:29N 46°19' E 030°40'0 0.0
2014-Oct-11 02:25N 46°19' E 030°40'0 0.0
2014-Oct-11 01:34N 46°19' E 030°40'0 0.0
2014-Oct-11 00:33N 46°19' E 030°40'0 0.0
2014-Oct-10 23:33N 46°19' E 030°40'0 0.0
2014-Oct-10 21:07N 46°19' E 030°40'0 0.0
2014-Oct-10 20:29N 46°19' E 030°40'0 0.0
2014-Oct-10 19:27N 46°19' E 030°40'0 0.0
2014-Oct-10 18:28N 46°19' E 030°40'  

Dump ship's entire track history